Havasu Lake, California
Current Conditions -  °F | °C
As of 6:56 PM on Friday 24 Oct 2014 (Local Time) from KEED Reporting Station
Clear Clear  
Wind Chill: 83°   Ceiling: Unl
Heat Index: 83°   Visibility: 10mi
Dew Point: 38°   Wind: 7mph
Humidity: 20%   Direction: 260°W
Pressure: 29.93"   Gusts: NA
Location:  34.5025°N, 114.671°W
Report Text: KEED 250256Z AUTO 26006KT 10SM CLR 28/03 A2993 RMK AO2 SLP112 T02830033 51006
Loading
Personal Weather Stations






























Interactive Weather Map
Tropical Storm Tracking
New forecast layout! Learn more

10-Day Weather Forecast

Advertisements
Track Severe Weather on mobile